Time;durP1;ratioP1;P1;durP2;ratioP2;P2;SDS_P1;SDS_P2;PMS_P1;PMS_P2;Temp;Humidity;BMP_temperature;BMP_pressure;BME280_temperature;BME280_humidity;BME280_pressure;Samples;Min_cycle;Max_cycle;Signal;HPM_P1;HPM_P2
2024/01/25 00:01:58;;;;;;;35.53;6.18;;;8.40;99.90;;;;;;5058819;28;21050;-70
2024/01/25 00:04:24;;;;;;;39.10;7.45;;;8.50;99.90;;;;;;5049168;28;20048;-71
2024/01/25 00:06:50;;;;;;;37.17;5.95;;;8.60;99.90;;;;;;5057018;28;20036;-71
2024/01/25 00:09:15;;;;;;;22.50;5.18;;;8.50;99.90;;;;;;5047136;28;20119;-71
2024/01/25 00:11:42;;;;;;;23.75;5.13;;;8.60;99.90;;;;;;5060828;28;20090;-71
2024/01/25 00:14:08;;;;;;;29.50;4.85;;;8.60;99.90;;;;;;5044060;28;20028;-72
2024/01/25 00:16:33;;;;;;;21.17;4.60;;;8.50;99.90;;;;;;5060621;28;20032;-71
2024/01/25 00:18:59;;;;;;;31.65;5.40;;;8.50;99.90;;;;;;5057618;28;20040;-71
2024/01/25 00:21:25;;;;;;;17.05;3.72;;;8.60;99.90;;;;;;5050094;28;20683;-70
2024/01/25 00:23:50;;;;;;;31.33;6.35;;;8.60;99.90;;;;;;5059774;28;20075;-70
2024/01/25 00:26:16;;;;;;;30.00;5.57;;;8.60;99.90;;;;;;5043721;28;20036;-71
2024/01/25 00:28:41;;;;;;;18.63;3.80;;;8.50;99.90;;;;;;5061012;28;20577;-70
2024/01/25 00:31:07;;;;;;;24.88;6.20;;;8.50;99.90;;;;;;5053910;28;20040;-70
2024/01/25 00:33:33;;;;;;;32.13;4.05;;;8.50;99.90;;;;;;5060950;28;20226;-71
2024/01/25 00:35:59;;;;;;;37.78;5.00;;;8.50;99.90;;;;;;5055410;28;20028;-71
2024/01/25 00:38:26;;;;;;;24.95;4.35;;;8.40;99.90;;;;;;5063681;28;20042;-72
2024/01/25 00:40:52;;;;;;;19.38;5.15;;;8.40;99.90;;;;;;5047693;28;20099;-71
2024/01/25 00:43:18;;;;;;;24.98;5.32;;;8.30;99.90;;;;;;5065908;28;20028;-72
2024/01/25 00:45:44;;;;;;;14.38;4.93;;;8.20;99.90;;;;;;5051375;28;20036;-72
2024/01/25 00:48:10;;;;;;;31.60;7.15;;;8.10;99.90;;;;;;5057303;28;20061;-71
2024/01/25 00:50:37;;;;;;;14.75;3.83;;;8.10;99.90;;;;;;5045746;28;20728;-71
2024/01/25 00:53:03;;;;;;;31.05;5.63;;;8.10;99.90;;;;;;5055085;28;20044;-72
2024/01/25 00:55:29;;;;;;;27.17;5.00;;;8.10;99.90;;;;;;5044691;28;20028;-71
2024/01/25 00:57:55;;;;;;;36.53;5.22;;;8.00;99.90;;;;;;5055938;28;20131;-71
2024/01/25 01:00:21;;;;;;;44.17;6.97;;;8.00;99.90;;;;;;5049433;28;20594;-71
2024/01/25 01:02:47;;;;;;;28.42;4.25;;;7.80;99.90;;;;;;5043313;28;20111;-72
2024/01/25 01:05:13;;;;;;;33.80;5.63;;;7.90;99.90;;;;;;5057174;28;20044;-71
2024/01/25 01:07:41;;;;;;;21.75;5.32;;;7.90;99.90;;;;;;5039681;28;20037;-71
2024/01/25 01:10:08;;;;;;;22.02;4.43;;;7.90;99.90;;;;;;5037744;28;20354;-72
2024/01/25 01:12:34;;;;;;;26.45;5.07;;;7.90;99.90;;;;;;5039262;28;20487;-71
2024/01/25 01:14:59;;;;;;;26.38;5.28;;;7.90;99.90;;;;;;5054429;28;20043;-70
2024/01/25 01:17:25;;;;;;;28.20;6.38;;;8.00;99.90;;;;;;5042936;28;20043;-71
2024/01/25 01:19:50;;;;;;;28.25;5.95;;;8.00;99.90;;;;;;5054045;28;20373;-70
2024/01/25 01:22:16;;;;;;;22.13;4.22;;;8.00;99.90;;;;;;5040606;28;20036;-72
2024/01/25 01:24:42;;;;;;;16.70;3.70;;;8.00;99.90;;;;;;5054887;28;20070;-72
2024/01/25 01:27:07;;;;;;;25.35;3.75;;;8.00;99.90;;;;;;5039781;28;20683;-72
2024/01/25 01:29:33;;;;;;;30.48;6.05;;;8.00;99.90;;;;;;5060984;28;20120;-71
2024/01/25 01:31:58;;;;;;;15.75;4.00;;;7.90;99.90;;;;;;5038908;28;20032;-72
2024/01/25 01:34:24;;;;;;;31.33;4.28;;;7.80;99.90;;;;;;5049236;28;20032;-71
2024/01/25 01:36:50;;;;;;;22.83;5.30;;;7.70;99.90;;;;;;5043787;28;20016;-71
2024/01/25 01:39:15;;;;;;;19.00;3.70;;;7.60;99.90;;;;;;5054694;28;21017;-72
2024/01/25 01:41:41;;;;;;;19.75;3.53;;;7.50;99.90;;;;;;5057978;28;20028;-71
2024/01/25 01:44:07;;;;;;;19.33;3.22;;;7.40;99.90;;;;;;5044095;28;20035;-72
2024/01/25 01:46:34;;;;;;;13.77;3.35;;;7.40;99.90;;;;;;5050996;28;20124;-70
2024/01/25 01:49:01;;;;;;;13.85;3.60;;;7.30;99.90;;;;;;5042129;28;20573;-70
2024/01/25 01:51:29;;;;;;;18.30;4.22;;;7.30;99.90;;;;;;5054503;28;20035;-71
2024/01/25 01:53:55;;;;;;;15.40;4.13;;;7.40;99.90;;;;;;5042575;28;20399;-71
2024/01/25 01:56:22;;;;;;;12.90;2.83;;;7.50;99.90;;;;;;5052999;28;21223;-72
2024/01/25 01:58:48;;;;;;;12.20;3.08;;;7.50;99.90;;;;;;5043044;28;20032;-71
2024/01/25 02:01:14;;;;;;;10.00;3.20;;;7.50;99.90;;;;;;5050460;28;20502;-71
2024/01/25 02:03:39;;;;;;;18.17;4.93;;;7.50;99.90;;;;;;5042546;28;20032;-71
2024/01/25 02:06:06;;;;;;;11.02;2.55;;;7.50;99.90;;;;;;5049769;28;20478;-71
2024/01/25 02:08:32;;;;;;;15.93;3.55;;;7.50;99.90;;;;;;5039856;28;20036;-71
2024/01/25 02:10:58;;;;;;;10.20;2.38;;;7.50;99.90;;;;;;5052644;28;20028;-71
2024/01/25 02:13:24;;;;;;;30.80;3.53;;;7.50;99.90;;;;;;5033348;28;20492;-70
2024/01/25 02:15:50;;;;;;;20.40;3.97;;;7.50;99.90;;;;;;5058168;28;20039;-70
2024/01/25 02:18:15;;;;;;;34.63;5.15;;;7.60;99.90;;;;;;5042167;28;20029;-71
2024/01/25 02:20:41;;;;;;;12.32;3.70;;;7.60;99.90;;;;;;5050271;28;20115;-72
2024/01/25 02:23:06;;;;;;;13.77;3.10;;;7.70;99.90;;;;;;5058590;28;20499;-73
2024/01/25 02:25:32;;;;;;;17.65;4.28;;;7.70;99.90;;;;;;5044108;28;20104;-71
2024/01/25 02:27:58;;;;;;;30.45;3.65;;;7.60;99.90;;;;;;5048150;28;20056;-71
2024/01/25 02:30:23;;;;;;;16.23;3.40;;;7.60;99.90;;;;;;5037352;28;20031;-71
2024/01/25 02:32:49;;;;;;;23.70;3.30;;;7.70;99.90;;;;;;5054525;28;20543;-71
2024/01/25 02:35:15;;;;;;;16.08;4.05;;;7.80;99.90;;;;;;5042882;28;20447;-72
2024/01/25 02:37:41;;;;;;;23.52;3.75;;;7.80;99.90;;;;;;5054465;28;20032;-71
2024/01/25 02:40:07;;;;;;;29.85;4.47;;;7.90;99.90;;;;;;5035077;28;20032;-71
2024/01/25 02:42:33;;;;;;;9.90;3.28;;;7.90;99.90;;;;;;5050398;28;20073;-71
2024/01/25 02:44:58;;;;;;;13.90;3.38;;;7.80;99.90;;;;;;5037250;28;20037;-71
2024/01/25 02:47:24;;;;;;;10.25;2.70;;;7.90;99.90;;;;;;5031993;28;20068;-72
2024/01/25 02:49:49;;;;;;;10.38;2.88;;;7.80;99.90;;;;;;5014981;28;20720;-72
2024/01/25 02:52:15;;;;;;;21.55;4.50;;;7.80;99.90;;;;;;5028601;28;20029;-72
2024/01/25 02:54:41;;;;;;;10.48;2.13;;;7.80;99.90;;;;;;5012078;28;20358;-72
2024/01/25 02:57:07;;;;;;;6.75;3.00;;;7.60;99.90;;;;;;5031138;28;20030;-72
2024/01/25 02:59:32;;;;;;;22.20;3.38;;;7.50;99.90;;;;;;5016371;28;20694;-71
2024/01/25 03:01:58;;;;;;;13.65;3.25;;;7.40;99.90;;;;;;5026072;28;21174;-72
2024/01/25 03:04:24;;;;;;;23.52;4.32;;;7.50;99.90;;;;;;5031062;28;20041;-71
2024/01/25 03:06:49;;;;;;;17.98;4.20;;;7.70;99.90;;;;;;5010049;28;20036;-72
2024/01/25 03:09:15;;;;;;;24.70;5.35;;;7.80;99.90;;;;;;5026588;28;20055;-72
2024/01/25 03:11:41;;;;;;;14.43;3.97;;;7.80;99.90;;;;;;5016395;28;20496;-73
2024/01/25 03:14:06;;;;;;;17.40;3.13;;;7.80;99.90;;;;;;5021818;28;20133;-70
2024/01/25 03:16:32;;;;;;;13.27;3.13;;;7.90;99.90;;;;;;5013590;28;20115;-71
2024/01/25 03:18:57;;;;;;;16.13;4.05;;;7.70;99.90;;;;;;5029159;28;20202;-72
2024/01/25 03:21:23;;;;;;;23.73;4.47;;;7.80;99.90;;;;;;5010746;28;20120;-73
2024/01/25 03:23:51;;;;;;;15.43;4.13;;;7.80;99.90;;;;;;5029658;28;20076;-71
2024/01/25 03:26:16;;;;;;;9.05;2.70;;;7.90;99.90;;;;;;5008589;28;20090;-71
2024/01/25 03:28:42;;;;;;;30.00;5.07;;;7.90;99.90;;;;;;5028032;28;20033;-71
2024/01/25 03:31:08;;;;;;;20.90;3.55;;;8.00;99.90;;;;;;5017058;28;20033;-70
2024/01/25 03:33:33;;;;;;;11.88;3.17;;;8.10;99.90;;;;;;5023119;28;20354;-71
2024/01/25 03:36:03;;;;;;;12.02;2.40;;;8.20;99.90;;;;;;5014383;28;20037;-71
2024/01/25 03:38:29;;;;;;;14.57;3.35;;;8.20;99.90;;;;;;5027640;28;20030;-72
2024/01/25 03:40:56;;;;;;;16.08;3.15;;;8.20;99.90;;;;;;5016974;28;20037;-73
2024/01/25 03:43:23;;;;;;;8.93;3.50;;;8.30;99.90;;;;;;5031824;28;20508;-71
2024/01/25 03:45:49;;;;;;;16.20;2.55;;;8.30;99.90;;;;;;5031596;28;20047;-71
2024/01/25 03:48:15;;;;;;;13.73;2.75;;;8.40;99.90;;;;;;5042375;28;20047;-72
2024/01/25 03:50:41;;;;;;;19.67;3.28;;;8.30;99.90;;;;;;5069573;28;20031;-70
2024/01/25 03:53:06;;;;;;;23.40;3.33;;;8.30;99.90;;;;;;5045931;28;20060;-72
2024/01/25 03:55:32;;;;;;;23.15;3.03;;;8.20;99.90;;;;;;5061948;28;20107;-72
2024/01/25 03:57:58;;;;;;;19.50;3.17;;;8.10;99.90;;;;;;5049253;28;20408;-72
2024/01/25 04:00:24;;;;;;;23.30;3.60;;;8.10;99.90;;;;;;5057931;28;20067;-73
2024/01/25 04:02:50;;;;;;;20.35;3.95;;;8.20;99.90;;;;;;5049215;28;20059;-71
2024/01/25 04:05:16;;;;;;;19.05;4.10;;;8.40;99.90;;;;;;5064652;28;20498;-71
2024/01/25 04:07:42;;;;;;;31.80;4.63;;;8.50;99.90;;;;;;5044592;28;20132;-71
2024/01/25 04:10:08;;;;;;;20.42;3.88;;;8.50;99.90;;;;;;5066938;28;20132;-72
2024/01/25 04:12:33;;;;;;;14.80;4.22;;;8.50;99.90;;;;;;5054425;28;20042;-71
2024/01/25 04:14:59;;;;;;;19.83;3.67;;;8.60;99.90;;;;;;5059386;28;20105;-71
2024/01/25 04:17:25;;;;;;;21.45;4.22;;;8.50;99.90;;;;;;5051355;28;20150;-72
2024/01/25 04:19:51;;;;;;;12.20;2.67;;;8.60;99.90;;;;;;5063431;28;20190;-72
2024/01/25 04:22:16;;;;;;;11.20;2.75;;;8.70;99.90;;;;;;5057657;28;20097;-70
2024/01/25 04:24:43;;;;;;;21.20;4.30;;;8.70;99.90;;;;;;5066221;28;20047;-71
2024/01/25 04:27:10;;;;;;;19.65;4.38;;;8.70;99.90;;;;;;5062811;28;20048;-71
2024/01/25 04:29:38;;;;;;;16.15;3.15;;;8.70;99.90;;;;;;5052063;28;20020;-71
2024/01/25 04:32:05;;;;;;;35.78;4.97;;;8.70;99.90;;;;;;5069847;28;20028;-70
2024/01/25 04:34:30;;;;;;;24.45;3.80;;;8.70;99.90;;;;;;5049791;28;20060;-71
2024/01/25 04:36:56;;;;;;;14.88;2.72;;;8.70;99.90;;;;;;5064649;28;20575;-70
2024/01/25 04:39:22;;;;;;;12.93;2.45;;;8.70;99.90;;;;;;5053868;28;20763;-70
2024/01/25 04:41:48;;;;;;;14.85;3.28;;;8.90;99.90;;;;;;5062249;28;20052;-71
2024/01/25 04:44:13;;;;;;;16.77;2.85;;;8.90;99.90;;;;;;5052643;28;20032;-72
2024/01/25 04:46:39;;;;;;;21.30;3.55;;;8.90;99.90;;;;;;5064359;28;20430;-71
2024/01/25 04:49:05;;;;;;;20.70;2.83;;;9.00;99.90;;;;;;5047473;28;20399;-71
2024/01/25 04:51:30;;;;;;;13.07;2.83;;;9.20;99.90;;;;;;5064104;28;20499;-71
2024/01/25 04:53:56;;;;;;;12.65;2.25;;;9.30;99.90;;;;;;5045514;28;20031;-72
2024/01/25 04:56:22;;;;;;;5.25;2.13;;;9.30;99.90;;;;;;5064886;28;20405;-72
2024/01/25 04:58:48;;;;;;;5.00;1.38;;;9.40;99.90;;;;;;5051242;28;20075;-71
2024/01/25 05:01:13;;;;;;;12.13;2.03;;;9.50;99.90;;;;;;5059667;28;20559;-70
2024/01/25 05:03:39;;;;;;;14.50;2.03;;;9.40;99.90;;;;;;5042381;28;20039;-70
2024/01/25 05:06:05;;;;;;;9.48;1.75;;;9.30;99.90;;;;;;5065129;28;20452;-70
2024/01/25 05:08:32;;;;;;;14.50;2.75;;;9.20;99.90;;;;;;5061351;28;20039;-72
2024/01/25 05:10:58;;;;;;;15.80;2.00;;;9.20;99.90;;;;;;5049396;28;20021;-71
2024/01/25 05:13:23;;;;;;;4.03;1.00;;;9.20;99.90;;;;;;5054449;28;20029;-71
2024/01/25 05:15:49;;;;;;;4.07;0.75;;;9.20;99.90;;;;;;5047658;28;20408;-70
2024/01/25 05:18:14;;;;;;;12.02;3.17;;;9.20;99.90;;;;;;5059416;28;20032;-72
2024/01/25 05:20:40;;;;;;;9.48;1.90;;;9.20;99.90;;;;;;5041486;28;20032;-73
2024/01/25 05:23:06;;;;;;;2.33;0.73;;;9.20;99.90;;;;;;5058634;28;20431;-71
2024/01/25 05:25:32;;;;;;;2.13;1.05;;;9.10;99.90;;;;;;5056346;28;20115;-71
2024/01/25 05:27:57;;;;;;;3.70;0.70;;;9.20;99.90;;;;;;5059484;28;20109;-71
2024/01/25 05:30:24;;;;;;;4.72;0.88;;;9.10;99.90;;;;;;5054643;28;20537;-72
2024/01/25 05:32:51;;;;;;;4.45;0.70;;;9.10;99.90;;;;;;5067410;28;20170;-71
2024/01/25 05:35:17;;;;;;;6.97;1.42;;;9.10;99.90;;;;;;5049951;28;20192;-72
2024/01/25 05:37:43;;;;;;;3.75;1.13;;;9.10;99.90;;;;;;5065326;28;20028;-72
2024/01/25 05:40:09;;;;;;;6.15;1.10;;;9.10;99.90;;;;;;5051057;28;20538;-71
2024/01/25 05:42:35;;;;;;;11.50;0.60;;;9.10;99.90;;;;;;5063884;28;20036;-72
2024/01/25 05:45:03;;;;;;;4.32;1.00;;;9.10;99.90;;;;;;5052891;28;20517;-71
2024/01/25 05:47:28;;;;;;;6.60;0.75;;;9.10;99.90;;;;;;5058245;28;20048;-71
2024/01/25 05:49:55;;;;;;;6.70;2.03;;;9.10;99.90;;;;;;5063799;28;20086;-71
2024/01/25 05:52:21;;;;;;;5.60;1.02;;;9.10;99.90;;;;;;5051191;28;20031;-72
2024/01/25 05:54:47;;;;;;;4.47;1.23;;;9.10;99.90;;;;;;5060699;28;20467;-72
2024/01/25 05:57:13;;;;;;;15.30;1.42;;;9.10;99.90;;;;;;5054436;28;20028;-72
2024/01/25 05:59:39;;;;;;;4.80;0.90;;;9.10;99.90;;;;;;5067790;28;20032;-71
2024/01/25 06:02:05;;;;;;;8.68;0.77;;;9.30;99.90;;;;;;5045200;28;20035;-71
2024/01/25 06:04:31;;;;;;;0.60;0.28;;;9.50;99.90;;;;;;5066465;28;20024;-71
2024/01/25 06:06:56;;;;;;;6.60;1.02;;;9.50;99.90;;;;;;5048008;28;20278;-72
2024/01/25 06:09:24;;;;;;;9.68;1.10;;;9.40;99.90;;;;;;5056454;28;20436;-72
2024/01/25 06:11:50;;;;;;;3.97;0.70;;;9.40;99.90;;;;;;5050694;28;20035;-71
2024/01/25 06:14:17;;;;;;;12.55;1.75;;;9.40;99.90;;;;;;5060634;28;20051;-72
2024/01/25 06:16:42;;;;;;;3.75;1.27;;;9.50;99.90;;;;;;5053839;28;20411;-70
2024/01/25 06:19:08;;;;;;;7.90;1.40;;;9.40;99.90;;;;;;5051771;28;20321;-72
2024/01/25 06:21:35;;;;;;;5.75;1.00;;;9.40;99.90;;;;;;5041606;28;20032;-71
2024/01/25 06:24:02;;;;;;;3.15;0.88;;;9.50;99.90;;;;;;5058230;28;20040;-71
2024/01/25 06:26:27;;;;;;;2.97;1.15;;;9.50;99.90;;;;;;5051793;28;20040;-71
2024/01/25 06:28:53;;;;;;;1.48;0.45;;;9.50;99.90;;;;;;5058012;28;20039;-72
2024/01/25 06:31:19;;;;;;;3.22;0.85;;;9.40;99.90;;;;;;5041424;28;20025;-72
2024/01/25 06:33:47;;;;;;;6.93;1.05;;;9.30;99.90;;;;;;5045872;28;20040;-72
2024/01/25 06:36:15;;;;;;;4.95;0.80;;;9.30;99.90;;;;;;5060362;28;20032;-71
2024/01/25 06:38:40;;;;;;;8.85;1.48;;;9.40;99.90;;;;;;5047683;28;20025;-71
2024/01/25 06:41:07;;;;;;;6.15;0.57;;;9.40;99.90;;;;;;5057904;28;20089;-73
2024/01/25 06:43:32;;;;;;;7.43;1.42;;;9.40;99.90;;;;;;5050169;28;20101;-72
2024/01/25 06:45:58;;;;;;;6.65;0.80;;;9.30;99.90;;;;;;5067032;28;20439;-72
2024/01/25 06:48:23;;;;;;;4.38;0.63;;;9.30;99.90;;;;;;5046112;28;20074;-73
2024/01/25 06:50:50;;;;;;;4.70;0.50;;;9.30;99.90;;;;;;5060041;28;20163;-71
2024/01/25 06:53:16;;;;;;;3.00;0.65;;;9.40;99.90;;;;;;5047382;28;20028;-71
2024/01/25 06:55:42;;;;;;;3.10;0.40;;;9.40;99.90;;;;;;5057818;28;20028;-71
2024/01/25 06:58:08;;;;;;;4.53;0.70;;;9.50;99.90;;;;;;5051713;28;20043;-72
2024/01/25 07:00:33;;;;;;;6.70;0.90;;;9.50;99.90;;;;;;5061898;28;20040;-73
2024/01/25 07:02:59;;;;;;;1.30;0.32;;;9.40;99.90;;;;;;5050715;28;20047;-72
2024/01/25 07:05:25;;;;;;;12.43;1.00;;;9.40;99.90;;;;;;5054457;28;20123;-71
2024/01/25 07:07:50;;;;;;;3.25;0.98;;;9.30;99.90;;;;;;5046783;28;20032;-71
2024/01/25 07:10:16;;;;;;;6.07;0.63;;;9.40;99.90;;;;;;5059645;28;20039;-72
2024/01/25 07:12:42;;;;;;;1.73;0.70;;;9.40;99.90;;;;;;5062960;28;20102;-71
2024/01/25 07:15:10;;;;;;;6.93;0.90;;;9.40;99.90;;;;;;5036110;28;20111;-73
2024/01/25 07:17:38;;;;;;;3.50;0.50;;;9.30;99.90;;;;;;5060383;28;20128;-72
2024/01/25 07:20:06;;;;;;;1.88;0.77;;;9.30;99.90;;;;;;5044558;28;20474;-71
2024/01/25 07:22:31;;;;;;;1.33;1.20;;;9.30;99.90;;;;;;5053874;28;20029;-71
2024/01/25 07:24:57;;;;;;;4.20;0.93;;;9.30;99.90;;;;;;5045817;28;20352;-71
2024/01/25 07:27:22;;;;;;;1.42;0.75;;;9.30;99.90;;;;;;5057775;28;20067;-71
2024/01/25 07:29:48;;;;;;;1.45;0.88;;;9.30;99.90;;;;;;5037419;28;20632;-72
2024/01/25 07:32:14;;;;;;;2.58;1.08;;;9.40;99.90;;;;;;5061862;28;20032;-71
2024/01/25 07:34:39;;;;;;;2.63;1.10;;;9.40;99.90;;;;;;5047354;28;20026;-72
2024/01/25 07:37:05;;;;;;;2.50;1.30;;;9.40;99.90;;;;;;5065576;28;20041;-72
2024/01/25 07:39:31;;;;;;;3.35;1.25;;;9.40;99.90;;;;;;5051739;28;20032;-71
2024/01/25 07:41:57;;;;;;;6.03;1.15;;;9.50;99.90;;;;;;5059275;28;20028;-71
2024/01/25 07:44:22;;;;;;;10.75;2.63;;;9.60;99.90;;;;;;5053572;28;20020;-71
2024/01/25 07:46:48;;;;;;;10.73;2.20;;;9.70;99.90;;;;;;5050018;28;20079;-72
2024/01/25 07:49:13;;;;;;;2.90;2.30;;;9.70;99.90;;;;;;5039979;28;20028;-72
2024/01/25 07:51:39;;;;;;;11.15;3.05;;;9.70;99.90;;;;;;5055186;28;20028;-71
2024/01/25 07:54:05;;;;;;;4.53;1.75;;;9.70;99.90;;;;;;5052036;28;20036;-71
2024/01/25 07:56:30;;;;;;;8.80;2.35;;;9.70;99.90;;;;;;5043958;28;20032;-72
2024/01/25 07:58:56;;;;;;;6.85;2.40;;;9.70;99.90;;;;;;5063876;28;20075;-72
2024/01/25 08:01:22;;;;;;;3.13;1.25;;;9.70;99.90;;;;;;5044997;28;20035;-70
2024/01/25 08:03:47;;;;;;;14.65;2.00;;;9.70;99.90;;;;;;5056379;28;20488;-71
2024/01/25 08:06:13;;;;;;;4.63;1.90;;;9.70;99.90;;;;;;5051420;28;20337;-72
2024/01/25 08:08:39;;;;;;;9.52;2.28;;;9.70;99.90;;;;;;5054269;28;20032;-72
2024/01/25 08:11:05;;;;;;;11.60;2.30;;;9.70;99.90;;;;;;5044364;28;20066;-72
2024/01/25 08:13:31;;;;;;;9.82;1.67;;;9.80;99.90;;;;;;5055736;28;20059;-71
2024/01/25 08:15:57;;;;;;;6.82;2.03;;;9.70;99.90;;;;;;5037152;28;20476;-71
2024/01/25 08:18:23;;;;;;;9.68;2.72;;;9.80;99.90;;;;;;5049723;28;20821;-72
2024/01/25 08:20:50;;;;;;;10.02;2.08;;;9.80;99.90;;;;;;5032647;28;20499;-72
2024/01/25 08:23:16;;;;;;;8.48;2.28;;;9.90;99.90;;;;;;5040849;28;20155;-73
2024/01/25 08:25:42;;;;;;;21.40;2.13;;;9.90;99.90;;;;;;5037453;28;20063;-71
2024/01/25 08:28:07;;;;;;;7.75;2.28;;;10.00;99.90;;;;;;5046548;28;20655;-70
2024/01/25 08:30:33;;;;;;;24.38;2.60;;;10.10;99.90;;;;;;5035521;28;20428;-72
2024/01/25 08:32:59;;;;;;;17.27;2.58;;;10.10;99.90;;;;;;5054050;28;20044;-72
2024/01/25 08:35:25;;;;;;;6.55;1.83;;;10.20;99.90;;;;;;5046821;28;20522;-72
2024/01/25 08:37:50;;;;;;;19.77;1.98;;;10.20;99.90;;;;;;5028987;28;20333;-74
2024/01/25 08:40:16;;;;;;;5.35;1.60;;;10.20;99.90;;;;;;5050121;28;20040;-73
2024/01/25 08:42:42;;;;;;;9.40;2.53;;;10.30;99.90;;;;;;5031240;28;20055;-74
2024/01/25 08:45:08;;;;;;;17.65;2.78;;;10.30;99.90;;;;;;5048073;28;20717;-72
2024/01/25 08:47:36;;;;;;;4.18;1.83;;;10.30;99.90;;;;;;5038671;28;20049;-73
2024/01/25 08:50:03;;;;;;;10.93;2.50;;;10.30;99.90;;;;;;5043508;28;20032;-70
2024/01/25 08:52:29;;;;;;;3.30;1.20;;;10.30;99.90;;;;;;5032312;28;20503;-71
2024/01/25 08:54:54;;;;;;;9.95;1.33;;;10.40;99.90;;;;;;5037214;28;20047;-72
2024/01/25 08:57:20;;;;;;;9.25;1.23;;;10.30;99.90;;;;;;5022770;28;20888;-74
2024/01/25 08:59:46;;;;;;;19.70;1.65;;;10.20;99.90;;;;;;5042320;28;20550;-73
2024/01/25 09:02:11;;;;;;;8.48;1.33;;;10.40;99.90;;;;;;5019053;28;20414;-72
2024/01/25 09:04:37;;;;;;;10.65;1.92;;;10.40;99.90;;;;;;5040909;28;20210;-72
2024/01/25 09:07:03;;;;;;;11.25;1.08;;;10.40;99.90;;;;;;5038717;28;20507;-72
2024/01/25 09:09:29;;;;;;;18.65;1.67;;;10.40;99.90;;;;;;5045027;28;20041;-73
2024/01/25 09:11:55;;;;;;;7.05;2.42;;;10.50;99.90;;;;;;5031677;28;20468;-74
2024/01/25 09:14:21;;;;;;;6.68;1.38;;;10.30;99.90;;;;;;5043962;28;20035;-71
2024/01/25 09:16:47;;;;;;;7.05;2.95;;;10.30;99.90;;;;;;5042108;28;21449;-74
2024/01/25 09:19:12;;;;;;;7.65;2.13;;;10.40;99.90;;;;;;5038128;28;21767;-72
2024/01/25 09:21:39;;;;;;;8.90;1.55;;;10.30;99.90;;;;;;5034296;28;20037;-74
2024/01/25 09:24:06;;;;;;;8.15;1.73;;;10.40;99.90;;;;;;5021359;28;20041;-73
2024/01/25 09:26:32;;;;;;;19.60;2.00;;;10.30;99.90;;;;;;5044106;28;20029;-76
2024/01/25 09:28:57;;;;;;;11.80;1.23;;;10.50;99.90;;;;;;5022852;28;20044;-75
2024/01/25 09:31:23;;;;;;;5.53;1.63;;;10.50;99.90;;;;;;5038414;28;20838;-72
2024/01/25 09:33:51;;;;;;;2.75;0.93;;;10.70;99.90;;;;;;5019252;28;20053;-74
2024/01/25 09:36:17;;;;;;;4.18;1.25;;;10.70;99.90;;;;;;5038281;28;20493;-73
2024/01/25 09:38:43;;;;;;;5.55;1.17;;;10.70;99.90;;;;;;5025788;28;20035;-74
2024/01/25 09:41:09;;;;;;;2.08;1.20;;;10.80;99.90;;;;;;5042206;28;20037;-74
2024/01/25 09:43:35;;;;;;;9.57;1.48;;;10.80;99.90;;;;;;5026861;28;20051;-73
2024/01/25 09:46:01;;;;;;;9.57;1.80;;;10.80;99.90;;;;;;5044570;28;20365;-75
2024/01/25 09:48:27;;;;;;;12.25;1.23;;;10.90;99.90;;;;;;5004888;28;20044;-73
2024/01/25 09:50:55;;;;;;;10.50;1.67;;;10.90;99.90;;;;;;5029815;28;20676;-75
2024/01/25 09:53:22;;;;;;;12.30;1.77;;;11.00;99.90;;;;;;5015031;28;20851;-72
2024/01/25 09:56:05;;;;;;;20.38;1.35;;;11.10;99.90;;;;;;5023673;28;20029;-74
2024/01/25 09:58:38;;;;;;;7.72;1.17;;;11.30;99.90;;;;;;5023935;28;20029;-72
2024/01/25 10:01:05;;;;;;;8.85;1.35;;;11.50;99.90;;;;;;5024271;28;20057;-73
2024/01/25 10:03:30;;;;;;;2.45;0.90;;;11.60;99.90;;;;;;5010659;28;20071;-72
2024/01/25 10:06:02;;;;;;;5.95;1.83;;;11.70;99.90;;;;;;5012404;28;20053;-75
2024/01/25 10:08:30;;;;;;;2.67;1.08;;;11.70;99.90;;;;;;5032383;28;20037;-74
2024/01/25 10:10:56;;;;;;;11.02;1.30;;;11.80;99.90;;;;;;5025512;28;20033;-74
2024/01/25 10:13:22;;;;;;;11.60;1.48;;;11.60;99.90;;;;;;5033748;28;20397;-75
2024/01/25 10:15:50;;;;;;;12.27;1.38;;;11.30;99.90;;;;;;5017713;28;20055;-75
2024/01/25 10:18:15;;;;;;;7.25;1.33;;;11.30;99.90;;;;;;5034690;28;20086;-74
2024/01/25 10:20:43;;;;;;;7.75;1.20;;;;;;;;;;5017634;28;20090;-74
2024/01/25 10:23:09;;;;;;;6.80;1.30;;;11.00;99.90;;;;;;5027460;28;20032;-73
2024/01/25 10:25:36;;;;;;;9.70;1.35;;;11.10;99.90;;;;;;5015435;28;20086;-73
2024/01/25 10:28:03;;;;;;;13.35;1.73;;;11.10;99.90;;;;;;5027286;28;20515;-73
2024/01/25 10:30:33;;;;;;;10.95;1.60;;;11.00;99.90;;;;;;5013460;28;20037;-72
2024/01/25 10:32:59;;;;;;;10.75;1.23;;;10.90;99.90;;;;;;5025897;28;20025;-73
2024/01/25 10:35:25;;;;;;;11.13;1.67;;;10.80;99.90;;;;;;5004986;28;20025;-71
2024/01/25 10:37:52;;;;;;;9.98;1.42;;;10.80;99.90;;;;;;5025246;28;20047;-72
2024/01/25 10:40:20;;;;;;;6.13;1.67;;;10.90;99.90;;;;;;5012855;28;20086;-73
2024/01/25 10:42:46;;;;;;;4.32;0.75;;;10.70;99.90;;;;;;5026644;28;20163;-72
2024/01/25 10:45:12;;;;;;;6.90;1.45;;;10.90;99.90;;;;;;5020233;28;20527;-73
2024/01/25 10:47:40;;;;;;;7.13;1.25;;;10.90;99.90;;;;;;5047220;28;20541;-75
2024/01/25 10:50:09;;;;;;;5.47;1.30;;;;;;;;;;5026032;28;20521;-72
2024/01/25 10:52:36;;;;;;;6.30;1.08;;;;;;;;;;5050680;28;20116;-73
2024/01/25 10:55:07;;;;;;;9.05;1.08;;;11.60;99.90;;;;;;5051027;28;20036;-72
2024/01/25 10:57:37;;;;;;;7.65;1.27;;;11.60;99.90;;;;;;5033932;28;20340;-72
2024/01/25 11:00:07;;;;;;;13.52;1.65;;;11.70;99.90;;;;;;5049886;28;20578;-72
2024/01/25 11:02:35;;;;;;;6.68;0.80;;;11.80;99.90;;;;;;5036997;28;20036;-72
2024/01/25 11:05:01;;;;;;;20.77;1.92;;;11.90;99.90;;;;;;5056458;28;20360;-72
2024/01/25 11:07:26;;;;;;;8.10;1.63;;;12.10;99.90;;;;;;5045475;28;20086;-72
2024/01/25 11:09:52;;;;;;;13.45;1.50;;;12.10;99.90;;;;;;5049919;28;20040;-72
2024/01/25 11:12:19;;;;;;;9.00;1.13;;;12.10;99.90;;;;;;5047541;28;20445;-70
2024/01/25 11:14:44;;;;;;;10.10;1.60;;;11.90;99.90;;;;;;5051512;28;20036;-73
2024/01/25 11:17:25;;;;;;;6.18;0.85;;;11.90;99.90;;;;;;5034267;28;20033;-74
2024/01/25 11:19:51;;;;;;;5.93;2.17;;;11.80;99.90;;;;;;5051887;28;20057;-73
2024/01/25 11:22:17;;;;;;;7.30;1.63;;;11.70;99.90;;;;;;5034954;28;20040;-74
2024/01/25 11:24:43;;;;;;;4.47;1.63;;;11.50;99.90;;;;;;5048906;28;20036;-75
2024/01/25 11:27:11;;;;;;;5.22;1.23;;;11.50;99.90;;;;;;5038889;28;20032;-71
2024/01/25 11:29:39;;;;;;;11.18;1.27;;;11.40;99.90;;;;;;5043373;28;20432;-73
2024/01/25 11:32:05;;;;;;;5.07;1.00;;;11.60;99.90;;;;;;5024690;28;20100;-72
2024/01/25 11:34:31;;;;;;;1.45;0.60;;;11.50;99.90;;;;;;5045153;28;20626;-74
2024/01/25 11:36:57;;;;;;;6.40;1.30;;;11.70;99.90;;;;;;5030739;28;20123;-76
2024/01/25 11:39:23;;;;;;;4.35;1.10;;;11.90;99.90;;;;;;5054124;28;20037;-75
2024/01/25 11:41:51;;;;;;;8.02;0.98;;;12.20;99.90;;;;;;5042240;28;20478;-74
2024/01/25 11:44:17;;;;;;;9.20;0.85;;;12.30;99.90;;;;;;5047344;28;20462;-76
2024/01/25 11:46:43;;;;;;;8.05;0.95;;;12.40;99.90;;;;;;5051911;28;20053;-78
2024/01/25 11:49:08;;;;;;;7.53;0.60;;;12.30;99.90;;;;;;5031231;28;20793;-75
2024/01/25 11:51:34;;;;;;;8.48;1.20;;;;;;;;;;5046930;28;20114;-76
2024/01/25 11:54:00;;;;;;;6.03;0.90;;;12.40;99.90;;;;;;5039240;28;20715;-76
2024/01/25 11:56:29;;;;;;;7.78;1.33;;;12.40;99.90;;;;;;5045057;28;20032;-73
2024/01/25 11:58:56;;;;;;;8.27;0.98;;;12.40;99.90;;;;;;5041697;28;20140;-77
2024/01/25 12:01:23;;;;;;;4.22;0.90;;;12.20;99.90;;;;;;5043551;28;20616;-76
2024/01/25 12:03:49;;;;;;;9.43;1.05;;;12.20;99.90;;;;;;5033413;28;20082;-79
2024/01/25 12:06:15;;;;;;;7.28;1.33;;;12.10;99.90;;;;;;5051457;28;20336;-74
2024/01/25 12:08:40;;;;;;;4.28;1.25;;;12.10;99.90;;;;;;5044797;28;20036;-75
2024/01/25 12:11:40;;;;;;;11.18;0.80;;;12.10;99.90;;;;;;5059429;28;20086;-76
2024/01/25 12:14:08;;;;;;;3.95;1.10;;;12.20;99.90;;;;;;5044963;28;20502;-76
2024/01/25 12:16:34;;;;;;;7.30;1.08;;;12.40;99.90;;;;;;5055929;28;20105;-75
2024/01/25 12:18:59;;;;;;;7.13;0.70;;;12.60;99.90;;;;;;5041481;28;20723;-76
2024/01/25 12:21:25;;;;;;;4.35;0.63;;;12.70;99.90;;;;;;5055682;28;20614;-79
2024/01/25 12:23:50;;;;;;;7.95;1.25;;;13.00;99.90;;;;;;5042364;28;20490;-76
2024/01/25 12:26:17;;;;;;;4.40;0.65;;;;;;;;;;5056900;28;20028;-77
2024/01/25 12:28:42;;;;;;;5.20;1.75;;;12.90;99.90;;;;;;5039450;28;20430;-78
2024/01/25 12:31:08;;;;;;;8.45;1.17;;;12.60;99.90;;;;;;5054921;28;20106;-78
2024/01/25 12:33:35;;;;;;;3.47;0.75;;;12.70;99.90;;;;;;5050870;28;20024;-82
2024/01/25 12:36:02;;;;;;;8.13;1.48;;;12.90;99.90;;;;;;5055431;28;20037;-77
2024/01/25 12:38:31;;;;;;;5.93;0.63;;;12.80;99.90;;;;;;5061334;28;20705;-78
2024/01/25 12:41:12;;;;;;;4.30;0.82;;;;;;;;;;5059725;28;20088;-75
2024/01/25 12:43:38;;;;;;;8.70;1.27;;;12.50;99.90;;;;;;5065235;28;20036;-86
2024/01/25 12:46:06;;;;;;;10.40;1.05;;;;;;;;;;5055591;28;20040;-79